Terminal Aerodrome Forecast
Issued by NWS

Home | Current Version | Previous Version | Text Only | Print | Product List | Glossary On
Versions: 1 2 3 4 5 6 7 8 9 10 11 12 13 14
000
FTUS43 KTOP 060520
TAFMHK
TAF
KMHK 060520Z 0606/0706 17013KT P6SM BKN250
     FM061500 20014G21KT P6SM SCT040 BKN150
     FM062100 18008KT 5SM TSRA OVC030CB
     FM070100 35012KT 5SM -SHRA OVC010=

USA.gov is the U.S. government's official web portal to all federal, state and local government web resources and services.